Time;durP1;ratioP1;P1;durP2;ratioP2;P2;SDS_P1;SDS_P2;PMS_P1;PMS_P2;Temp;Humidity;BMP_temperature;BMP_pressure;BME280_temperature;BME280_humidity;BME280_pressure;Samples;Min_cycle;Max_cycle;Signal;HPM_P1;HPM_P2
2021/03/31 00:01:33;;;;;;;27.10;16.90;;;;;;;6.17;100.00;102592.16;5091334;28;20171;-73
2021/03/31 00:03:58;;;;;;;22.23;17.37;;;;;;;6.14;100.00;102593.97;5092666;28;20636;-71
2021/03/31 00:06:24;;;;;;;23.70;16.47;;;;;;;6.15;100.00;102591.31;5092874;28;20156;-73
2021/03/31 00:08:49;;;;;;;26.70;17.27;;;;;;;6.17;100.00;102591.28;5092241;28;20225;-72
2021/03/31 00:11:16;;;;;;;28.87;16.47;;;;;;;6.09;100.00;102586.22;5091763;28;20614;-72
2021/03/31 00:13:41;;;;;;;18.97;15.03;;;;;;;6.09;100.00;102586.22;5092446;28;20183;-75
2021/03/31 00:16:07;;;;;;;22.80;16.53;;;;;;;6.22;100.00;102581.63;5091947;28;20504;-75
2021/03/31 00:18:33;;;;;;;24.37;16.53;;;;;;;6.14;100.00;102586.13;5091622;28;20156;-72
2021/03/31 00:20:59;;;;;;;22.80;16.37;;;;;;;6.07;100.00;102580.16;5091710;28;20224;-74
2021/03/31 00:23:28;;;;;;;24.40;17.23;;;;;;;6.06;100.00;102581.06;5092065;28;20394;-74
2021/03/31 00:25:54;;;;;;;20.47;15.00;;;;;;;6.05;100.00;102577.59;5092058;28;20398;-73
2021/03/31 00:28:20;;;;;;;22.23;16.13;;;;;;;6.05;100.00;102574.97;5090912;28;20827;-73
2021/03/31 00:30:47;;;;;;;20.03;15.17;;;;;;;6.03;100.00;102581.09;5091961;28;20402;-75
2021/03/31 00:33:13;;;;;;;22.27;16.60;;;;;;;6.10;100.00;102580.09;5092063;28;20542;-72
2021/03/31 00:35:39;;;;;;;20.50;16.23;;;;;;;6.05;100.00;102574.97;5091788;28;20389;-73
2021/03/31 00:38:06;;;;;;;22.37;16.57;;;;;;;6.09;100.00;102565.34;5091759;28;20429;-71
2021/03/31 00:40:42;;;;;;;24.87;14.73;;;;;;;6.13;100.00;102576.59;5091841;28;20408;-72
2021/03/31 00:43:08;;;;;;;23.43;15.60;;;;;;;6.03;100.00;102570.66;5092047;28;20393;-75
2021/03/31 00:45:34;;;;;;;20.27;15.13;;;;;;;6.11;100.00;102566.16;5089639;28;20497;-76
2021/03/31 00:48:01;;;;;;;21.33;15.40;;;;;;;6.18;100.00;102565.16;5091693;28;20425;-71
2021/03/31 00:50:27;;;;;;;21.93;13.97;;;;;;;6.16;100.00;102572.16;5091776;28;20489;-73
2021/03/31 00:52:55;;;;;;;20.77;16.57;;;;;;;6.17;100.00;102571.25;5092383;28;20518;-73
2021/03/31 00:55:25;;;;;;;22.40;16.40;;;;;;;6.18;100.00;102567.75;5091322;28;20144;-74
2021/03/31 00:57:51;;;;;;;19.67;14.37;;;;;;;6.14;100.00;102567.88;5091946;28;20936;-74
2021/03/31 01:00:17;;;;;;;23.53;16.23;;;;;;;6.08;100.00;102568.84;5091636;28;20398;-72
2021/03/31 01:02:43;;;;;;;21.93;15.63;;;;;;;6.09;100.00;102565.34;5091117;28;21046;-72
2021/03/31 01:05:10;;;;;;;20.83;15.10;;;;;;;6.01;100.00;102567.22;5091641;28;20981;-75
2021/03/31 01:07:37;;;;;;;24.27;16.27;;;;;;;6.02;100.00;102567.19;5091761;28;20221;-74
2021/03/31 01:10:04;;;;;;;20.10;15.60;;;;;;;6.00;100.00;102560.28;5091690;28;20409;-73
2021/03/31 01:12:59;;;;;;;20.37;14.37;;;;;;;5.92;100.00;102568.25;5091548;28;20437;-75
2021/03/31 01:15:57;;;;;;;21.20;15.67;;;;;;;5.89;100.00;102556.97;5090506;28;20410;-74
2021/03/31 01:18:32;;;;;;;22.87;13.97;;;;;;;5.91;100.00;102557.84;5066893;28;20445;-75
2021/03/31 01:21:15;;;;;;;18.00;13.93;;;;;;;5.92;100.00;102562.19;5071328;28;20425;-72
2021/03/31 01:24:08;;;;;;;21.67;13.90;;;;;;;5.97;100.00;102561.22;5085926;28;20414;-72
2021/03/31 01:26:42;;;;;;;20.87;14.63;;;;;;;5.86;100.00;102557.91;5071485;28;20438;-72
2021/03/31 01:29:27;;;;;;;18.70;13.30;;;;;;;5.89;100.00;102559.56;5082347;28;20413;-72
2021/03/31 01:32:10;;;;;;;16.03;10.67;;;;;;;5.93;100.00;102556.06;5091471;28;20773;-74
2021/03/31 01:34:48;;;;;;;17.87;13.27;;;;;;;6.02;100.00;102551.53;5091201;28;20446;-75
2021/03/31 01:37:22;;;;;;;18.80;13.30;;;;;;;5.96;100.00;102559.47;5091251;28;20401;-73
2021/03/31 01:39:51;;;;;;;17.87;13.40;;;;;;;5.99;100.00;102558.56;5091369;28;20385;-74
2021/03/31 01:42:19;;;;;;;20.87;13.90;;;;;;;6.01;100.00;102557.66;5091314;28;20413;-71
2021/03/31 01:44:47;;;;;;;20.90;14.80;;;;;;;5.94;100.00;102560.41;5091504;28;20382;-72
2021/03/31 01:47:14;;;;;;;18.93;13.87;;;;;;;5.84;100.00;102564.88;5090940;28;20406;-73
2021/03/31 01:49:41;;;;;;;20.30;15.13;;;;;;;5.88;100.00;102561.31;5091557;28;20960;-71
2021/03/31 01:52:09;;;;;;;19.63;13.00;;;;;;;5.87;100.00;102564.81;5090916;28;20987;-72
2021/03/31 01:54:36;;;;;;;21.33;12.80;;;;;;;5.88;100.00;102563.06;5090625;28;20438;-71
2021/03/31 01:57:03;;;;;;;18.07;13.00;;;;;;;5.82;100.00;102564.94;5091335;28;20721;-73
2021/03/31 01:59:31;;;;;;;18.43;13.90;;;;;;;5.80;100.00;102564.06;5090349;28;20397;-73
2021/03/31 02:01:58;;;;;;;20.30;13.43;;;;;;;5.79;100.00;102566.72;5091105;28;20428;-71
2021/03/31 02:04:25;;;;;;;17.77;12.70;;;;;;;5.70;100.00;102572.09;5091230;28;20415;-73
2021/03/31 02:06:53;;;;;;;18.10;13.80;;;;;;;5.66;100.00;102579.09;5091146;28;20963;-72
2021/03/31 02:09:19;;;;;;;16.47;13.30;;;;;;;5.68;100.00;102574.72;5091247;28;20921;-74
2021/03/31 02:11:46;;;;;;;24.50;13.90;;;;;;;5.81;100.00;102565.78;5091202;28;20481;-72
2021/03/31 02:14:15;;;;;;;18.80;12.70;;;;;;;5.73;100.00;102577.25;5091173;28;20518;-76
2021/03/31 02:16:42;;;;;;;17.27;13.43;;;;;;;5.82;100.00;102567.53;5090914;28;20397;-75
2021/03/31 02:19:12;;;;;;;22.83;13.63;;;;;;;5.80;100.00;102569.28;5090198;28;20402;-72
2021/03/31 02:21:39;;;;;;;19.90;14.90;;;;;;;5.83;100.00;102563.19;5090574;28;20428;-75
2021/03/31 02:24:05;;;;;;;21.67;13.83;;;;;;;5.91;100.00;102565.69;5091108;28;20543;-73
2021/03/31 02:26:31;;;;;;;18.73;14.67;;;;;;;5.88;100.00;102566.53;5091352;28;20968;-73
2021/03/31 02:28:56;;;;;;;19.27;14.23;;;;;;;5.74;100.00;102574.63;5090313;28;20418;-75
2021/03/31 02:31:23;;;;;;;20.90;14.47;;;;;;;5.75;100.00;102576.34;5090536;28;20183;-74
2021/03/31 02:33:52;;;;;;;26.83;15.50;;;;;;;5.71;100.00;102573.81;5090494;28;20792;-73
2021/03/31 02:36:20;;;;;;;19.00;14.70;;;;;;;5.69;100.00;102572.97;5090288;28;20413;-74
2021/03/31 02:38:47;;;;;;;22.37;14.53;;;;;;;5.63;100.00;102571.31;5090106;28;20460;-72
2021/03/31 02:41:14;;;;;;;22.10;14.87;;;;;;;5.65;100.00;102571.28;5093356;28;20408;-71
2021/03/31 02:43:43;;;;;;;19.60;13.73;;;;;;;5.66;100.00;102575.63;5093984;28;20912;-73
2021/03/31 02:46:19;;;;;;;19.13;13.67;;;;;;;5.60;100.00;102574.00;5094199;28;20505;-72
2021/03/31 02:48:48;;;;;;;21.30;13.93;;;;;;;5.58;100.00;102567.91;5093883;28;20448;-72
2021/03/31 02:51:15;;;;;;;22.60;15.13;;;;;;;5.64;100.00;102572.19;5094348;28;20393;-72
2021/03/31 02:53:41;;;;;;;24.50;15.53;;;;;;;5.56;100.00;102580.13;5094470;28;20437;-74
2021/03/31 02:56:08;;;;;;;19.73;14.00;;;;;;;5.51;100.00;102581.94;5093901;28;20402;-71
2021/03/31 02:58:37;;;;;;;20.67;14.77;;;;;;;5.37;100.00;102576.13;5093951;28;20162;-71
2021/03/31 03:01:03;;;;;;;23.57;15.33;;;;;;;5.32;100.00;102583.13;5093654;28;20398;-72
2021/03/31 03:03:31;;;;;;;23.17;15.73;;;;;;;5.21;100.00;102578.94;5093973;28;20393;-73
2021/03/31 03:05:57;;;;;;;24.67;16.50;;;;;;;5.23;100.00;102585.00;5094133;28;20831;-73
2021/03/31 03:08:24;;;;;;;20.57;15.50;;;;;;;5.21;100.00;102581.56;5093269;28;20413;-73
2021/03/31 03:10:50;;;;;;;19.57;14.90;;;;;;;5.25;100.00;102591.03;5093047;28;20633;-72
2021/03/31 03:13:20;;;;;;;26.20;15.43;;;;;;;5.24;100.00;102585.84;5093833;28;20441;-73
2021/03/31 03:15:46;;;;;;;23.63;15.37;;;;;;;5.25;100.00;102593.63;5093230;28;20409;-74
2021/03/31 03:18:12;;;;;;;21.60;15.23;;;;;;;5.22;100.00;102592.84;5092909;28;20746;-76
2021/03/31 03:20:38;;;;;;;26.60;16.10;;;;;;;5.31;100.00;102590.09;5092090;28;20884;-73
2021/03/31 03:23:06;;;;;;;23.07;16.33;;;;;;;5.30;100.00;102588.38;5093389;28;20441;-74
2021/03/31 03:25:33;;;;;;;23.07;16.00;;;;;;;5.23;100.00;102586.72;5092539;28;20156;-73
2021/03/31 03:27:59;;;;;;;25.90;17.43;;;;;;;5.20;100.00;102586.75;5092948;28;20413;-74
2021/03/31 03:30:26;;;;;;;25.93;15.97;;;;;;;5.20;100.00;102591.97;5092900;28;20413;-75
2021/03/31 03:32:52;;;;;;;25.50;18.83;;;;;;;5.17;100.00;102597.25;5093161;28;20520;-72
2021/03/31 03:35:21;;;;;;;24.57;17.43;;;;;;;5.11;100.00;102592.97;5090898;28;20426;-74
2021/03/31 03:37:48;;;;;;;24.47;16.93;;;;;;;5.06;100.00;102592.16;5084456;28;20406;-75
2021/03/31 03:40:15;;;;;;;27.57;16.00;;;;;;;4.98;100.00;102601.81;5093176;28;20390;-72
2021/03/31 03:42:41;;;;;;;24.93;17.43;;;;;;;4.83;100.00;102596.81;5091893;28;20429;-72
2021/03/31 03:45:08;;;;;;;25.20;18.10;;;;;;;4.84;100.00;102598.56;5093286;28;20399;-73
2021/03/31 03:47:34;;;;;;;31.03;19.10;;;;;;;4.82;100.00;102593.34;5093197;28;20475;-73
2021/03/31 03:50:03;;;;;;;25.03;15.50;;;;;;;4.83;100.00;102592.47;5090879;28;20420;-73
2021/03/31 03:52:29;;;;;;;29.30;19.13;;;;;;;4.83;100.00;102596.81;5092788;28;20425;-72
2021/03/31 03:54:56;;;;;;;39.63;19.00;;;;;;;4.90;100.00;102606.28;5091586;28;20422;-72
2021/03/31 03:57:26;;;;;;;23.13;18.17;;;;;;;4.87;100.00;102595.91;5092909;28;20156;-73
2021/03/31 03:59:52;;;;;;;31.97;18.10;;;;;;;4.81;100.00;102602.06;5092598;28;20410;-71
2021/03/31 04:02:17;;;;;;;30.63;18.23;;;;;;;4.90;100.00;102603.66;5079074;28;20501;-71
2021/03/31 04:04:43;;;;;;;25.30;18.50;;;;;;;4.94;100.00;102610.56;5086254;28;20390;-71
2021/03/31 04:07:08;;;;;;;28.57;20.37;;;;;;;4.93;100.00;102609.72;5087428;28;20265;-73
2021/03/31 04:09:35;;;;;;;26.60;20.20;;;;;;;4.90;100.00;102608.88;5091951;28;20537;-71
2021/03/31 04:12:02;;;;;;;33.87;21.10;;;;;;;4.91;100.00;102608.00;5092228;28;20692;-72
2021/03/31 04:14:27;;;;;;;27.97;19.43;;;;;;;4.91;100.00;102610.59;5092468;28;20563;-74
2021/03/31 04:16:55;;;;;;;28.43;20.33;;;;;;;4.95;100.00;102602.75;5092697;28;20414;-74
2021/03/31 04:19:23;;;;;;;36.00;21.90;;;;;;;4.98;100.00;102602.69;5092698;28;20530;-75
2021/03/31 04:21:49;;;;;;;30.80;20.90;;;;;;;5.07;100.00;102603.47;5091943;28;20406;-72
2021/03/31 04:24:15;;;;;;;30.83;20.03;;;;;;;5.10;100.00;102606.03;5092670;28;20493;-71
2021/03/31 04:26:41;;;;;;;29.80;19.50;;;;;;;5.09;100.00;102602.56;5091754;28;20412;-73
2021/03/31 04:29:08;;;;;;;26.27;17.93;;;;;;;5.20;100.00;102605.00;5092098;28;20390;-74
2021/03/31 04:31:36;;;;;;;28.30;18.20;;;;;;;5.24;100.00;102609.28;5084681;28;20169;-74
2021/03/31 04:34:04;;;;;;;32.50;20.33;;;;;;;5.27;100.00;102612.69;5091811;28;20920;-74
2021/03/31 04:36:30;;;;;;;28.53;19.63;;;;;;;5.32;100.00;102609.19;5092332;28;20431;-73
2021/03/31 04:38:57;;;;;;;35.40;21.57;;;;;;;5.29;100.00;102612.72;5092074;28;20875;-74
2021/03/31 04:41:22;;;;;;;29.53;20.53;;;;;;;5.29;100.00;102618.78;5088280;28;20402;-72
2021/03/31 04:43:48;;;;;;;35.10;23.23;;;;;;;5.33;100.00;102618.72;5091789;28;20410;-73
2021/03/31 04:46:14;;;;;;;30.37;21.33;;;;;;;5.31;100.00;102612.69;5092047;28;20188;-71
2021/03/31 04:48:40;;;;;;;28.73;19.23;;;;;;;5.31;100.00;102613.53;5091552;28;20977;-73
2021/03/31 04:51:07;;;;;;;27.13;20.03;;;;;;;5.33;100.00;102608.28;5088456;28;20633;-71
2021/03/31 04:53:33;;;;;;;28.90;18.90;;;;;;;5.37;100.00;102618.66;5091723;28;20481;-72
2021/03/31 04:55:59;;;;;;;29.17;19.80;;;;;;;5.41;100.00;102616.88;5077102;28;20410;-70
2021/03/31 04:58:25;;;;;;;33.20;19.40;;;;;;;5.56;100.00;102611.41;5071821;28;20792;-70
2021/03/31 05:00:51;;;;;;;33.80;22.80;;;;;;;5.61;100.00;102609.59;5085137;28;20417;-73
2021/03/31 05:03:16;;;;;;;30.13;22.00;;;;;;;5.67;100.00;102617.34;5082008;28;20402;-69
2021/03/31 05:05:42;;;;;;;32.27;21.90;;;;;;;5.70;100.00;102612.06;5091616;28;20159;-72
2021/03/31 05:08:08;;;;;;;29.40;20.37;;;;;;;5.72;100.00;102622.47;5091327;28;20168;-70
2021/03/31 05:10:34;;;;;;;28.03;22.10;;;;;;;5.80;100.00;102615.38;5084102;28;20180;-71
2021/03/31 05:12:59;;;;;;;29.20;20.20;;;;;;;5.91;100.00;102613.50;5092827;28;20244;-71
2021/03/31 05:15:25;;;;;;;29.93;21.27;;;;;;;6.00;100.00;102623.75;5098565;28;20480;-70
2021/03/31 05:17:50;;;;;;;27.47;19.33;;;;;;;6.07;100.00;102614.09;5111742;28;20170;-71
2021/03/31 05:20:16;;;;;;;31.50;21.90;;;;;;;6.10;100.00;102614.88;5098133;28;20152;-71
2021/03/31 05:22:42;;;;;;;28.80;19.07;;;;;;;6.17;100.00;102618.25;5095619;28;20195;-69
2021/03/31 05:25:09;;;;;;;29.13;19.83;;;;;;;6.23;100.00;102612.91;5100502;28;20405;-69
2021/03/31 05:27:35;;;;;;;27.07;18.73;;;;;;;6.33;100.00;102622.28;5110360;28;20809;-69
2021/03/31 05:30:08;;;;;;;28.27;18.30;;;;;;;6.44;100.00;102611.66;5107972;28;20391;-69
2021/03/31 05:32:33;;;;;;;27.77;19.13;;;;;;;6.63;100.00;102615.63;5090743;28;20517;-71
2021/03/31 05:34:59;;;;;;;27.90;20.70;;;;;;;6.66;100.00;102618.19;5089563;28;20428;-70
2021/03/31 05:37:25;;;;;;;27.77;19.87;;;;;;;6.77;100.00;102615.34;5102880;28;20198;-72
2021/03/31 05:39:50;;;;;;;30.93;18.33;;;;;;;6.76;100.00;102616.22;5093102;28;20143;-71
2021/03/31 05:42:16;;;;;;;25.67;18.00;;;;;;;6.77;100.00;102617.94;5111549;28;20254;-74
2021/03/31 05:44:43;;;;;;;27.20;18.30;;;;;;;6.75;100.00;102618.88;5102184;28;20168;-70
2021/03/31 05:47:12;;;;;;;27.53;19.27;;;;;;;6.90;100.00;102613.34;5091277;28;20439;-70
2021/03/31 05:49:38;;;;;;;24.87;18.57;;;;;;;7.00;100.00;102617.47;5071057;28;20433;-70
2021/03/31 05:52:07;;;;;;;27.77;19.80;;;;;;;7.03;100.00;102617.41;5084541;28;20413;-70
2021/03/31 05:54:33;;;;;;;31.17;19.37;;;;;;;7.10;100.00;102613.75;5089040;28;20861;-70
2021/03/31 05:56:58;;;;;;;25.27;19.00;;;;;;;7.18;100.00;102618.84;5093505;28;20950;-70
2021/03/31 05:59:25;;;;;;;27.80;18.20;;;;;;;7.29;100.00;102613.34;5090880;28;20156;-70
2021/03/31 06:01:50;;;;;;;26.53;18.63;;;;;;;7.35;100.00;102608.84;5089977;28;20152;-70
2021/03/31 06:04:19;;;;;;;23.43;16.83;;;;;;;7.52;100.00;102608.44;5090506;28;20474;-72
2021/03/31 06:06:44;;;;;;;19.10;13.23;;;;;;;7.57;100.00;102601.34;5091102;28;20152;-70
2021/03/31 06:09:10;;;;;;;29.47;19.03;;;;;;;7.67;100.00;102599.38;5090196;28;20398;-69
2021/03/31 06:11:55;;;;;;;27.93;17.33;;;;;;;7.78;100.00;102605.19;5095012;28;20164;-68
2021/03/31 06:14:29;;;;;;;21.27;16.07;;;;;;;7.94;100.00;102609.16;5089947;28;20448;-71
2021/03/31 06:17:09;;;;;;;24.80;16.83;;;;;;;8.09;100.00;102593.97;5100361;28;20413;-74
2021/03/31 06:19:38;;;;;;;23.97;16.40;;;;;;;8.22;100.00;102601.41;5110400;28;20409;-70
2021/03/31 06:25:13;;;;;;;20.77;14.80;;;;;;;8.54;100.00;102599.72;5053622;28;21801;-69
2021/03/31 06:27:39;;;;;;;20.20;14.37;;;;;;;8.61;100.00;102596.91;5093316;28;20437;-69
2021/03/31 06:30:06;;;;;;;17.10;12.20;;;;;;;8.68;100.00;102599.31;5094787;28;20494;-74
2021/03/31 06:32:39;;;;;;;18.33;12.80;;;;;;;8.80;100.00;102598.97;5084495;28;20563;-72
2021/03/31 06:35:06;;;;;;;20.07;13.80;;;;;;;8.92;100.00;102595.13;5092855;28;20989;-71
2021/03/31 06:37:36;;;;;;;23.60;14.67;;;;;;;8.97;100.00;102591.47;5094363;28;20400;-71
2021/03/31 06:40:05;;;;;;;16.70;14.57;;;;;;;9.06;100.00;102593.78;5094384;28;20391;-71
2021/03/31 06:42:49;;;;;;;17.50;13.33;;;;;;;8.94;100.00;102594.19;5094467;28;20386;-70
2021/03/31 06:45:19;;;;;;;21.47;14.97;;;;;;;9.04;100.00;102590.38;5093837;28;20382;-71
2021/03/31 06:47:57;;;;;;;20.97;14.23;;;;;;;9.09;100.00;102591.09;5094253;28;20760;-72
2021/03/31 06:50:23;;;;;;;19.37;14.77;;;;;;;9.24;100.00;102583.66;5096115;28;20405;-72
2021/03/31 06:52:51;;;;;;;17.30;13.73;;;;;;;9.32;100.00;102576.41;5103627;27;20441;-72
2021/03/31 06:55:17;;;;;;;20.57;14.30;;;;;;;9.36;100.00;102578.88;5093691;28;20605;-71
2021/03/31 06:57:51;;;;;;;19.00;13.90;;;;;;;9.46;100.00;102584.69;5093554;28;20397;-73
2021/03/31 07:00:26;;;;;;;18.10;14.27;;;;;;;9.52;100.00;102575.75;5092644;28;20185;-72
2021/03/31 07:02:53;;;;;;;19.60;13.83;;;;;;;9.52;100.00;102588.88;5093822;28;20489;-74
2021/03/31 07:05:20;;;;;;;18.43;14.27;;;;;;;9.62;100.00;102591.16;5081873;28;20407;-74
2021/03/31 07:07:46;;;;;;;23.47;13.50;;;;;;;9.73;100.00;102580.28;5073678;28;20433;-72
2021/03/31 07:10:17;;;;;;;15.37;10.13;;;;;;;9.94;100.00;102579.56;5087461;28;20396;-73
2021/03/31 07:12:48;;;;;;;12.07;10.67;;;;;;;10.09;100.00;102583.44;5104912;28;20233;-72
2021/03/31 07:15:15;;;;;;;14.60;10.63;;;;;;;10.23;100.00;102575.97;5098214;28;20818;-70
2021/03/31 07:17:52;;;;;;;13.83;9.03;;;;;;;10.42;100.00;102572.66;5093253;28;20393;-70
2021/03/31 07:20:18;;;;;;;12.20;8.63;;;;;;;10.66;100.00;102574.41;5094613;28;20381;-70
2021/03/31 07:22:44;;;;;;;14.00;9.77;;;;;;;10.73;100.00;102573.25;5103657;28;20398;-71
2021/03/31 07:25:12;;;;;;;16.53;10.17;;;;;;;11.17;100.00;102562.75;5095569;28;20282;-70
2021/03/31 07:27:39;;;;;;;12.40;8.97;;;;;;;11.47;100.00;102560.66;5104969;27;20394;-72
2021/03/31 07:30:11;;;;;;;15.83;8.80;;;;;;;11.69;100.00;102555.38;5093391;28;20390;-71
2021/03/31 07:32:50;;;;;;;11.70;9.10;;;;;;;12.17;100.00;102562.13;5108372;28;20464;-71
2021/03/31 07:35:18;;;;;;;10.30;8.57;;;;;;;12.59;92.13;102558.47;5113554;28;20917;-71
2021/03/31 07:37:45;;;;;;;8.90;6.57;;;;;;;12.54;90.23;102552.53;5108381;28;20413;-73
2021/03/31 07:40:16;;;;;;;9.50;7.73;;;;;;;12.64;88.62;102546.78;5092381;28;20405;-75
2021/03/31 07:42:48;;;;;;;12.33;8.30;;;;;;;13.08;87.08;102545.63;5092706;28;20413;-74
2021/03/31 07:45:16;;;;;;;10.40;7.83;;;;;;;13.12;83.62;102541.91;5091982;28;20398;-71
2021/03/31 07:47:44;;;;;;;9.10;6.93;;;;;;;13.18;85.01;102536.34;5091260;28;20441;-71
2021/03/31 07:50:11;;;;;;;10.00;7.50;;;;;;;13.55;85.77;102548.59;5092630;28;20872;-70
2021/03/31 07:52:50;;;;;;;12.57;8.00;;;;;;;13.47;84.24;102551.63;5090915;28;20479;-71
2021/03/31 07:55:41;;;;;;;9.93;7.80;;;;;;;13.52;84.02;102546.94;5092580;28;20401;-70
2021/03/31 07:58:12;;;;;;;12.80;9.80;;;;;;;13.46;84.11;102541.16;5087743;28;20410;-70
2021/03/31 08:00:44;;;;;;;12.17;8.60;;;;;;;13.54;86.08;102538.97;5092030;28;20466;-72
2021/03/31 08:03:10;;;;;;;13.50;9.90;;;;;;;13.91;83.90;102537.97;5096210;28;20508;-72
2021/03/31 08:06:04;;;;;;;8.97;7.63;;;;;;;14.00;78.88;102526.91;5099067;27;20501;-70
2021/03/31 08:08:30;;;;;;;13.23;8.50;;;;;;;13.70;75.12;102523.22;5091485;28;20489;-71
2021/03/31 08:10:56;;;;;;;7.97;6.67;;;;;;;13.58;74.13;102525.53;5089042;28;20421;-71
2021/03/31 08:13:34;;;;;;;13.10;8.70;;;;;;;13.85;75.68;102532.97;5092017;28;20442;-71
2021/03/31 08:16:16;;;;;;;12.83;7.03;;;;;;;13.79;71.22;102528.00;5077014;28;20402;-74
2021/03/31 08:18:42;;;;;;;11.63;6.80;;;;;;;13.72;67.97;102513.41;5084949;28;20413;-73
2021/03/31 08:21:20;;;;;;;8.73;6.60;;;;;;;13.77;66.14;102520.16;5090863;28;20418;-69
2021/03/31 08:23:52;;;;;;;9.30;6.80;;;;;;;13.82;69.01;102512.84;5092230;28;20402;-70
2021/03/31 08:26:46;;;;;;;11.10;8.10;;;;;;;14.35;71.67;102513.56;5092015;28;20473;-70
2021/03/31 08:29:17;;;;;;;14.73;8.00;;;;;;;14.76;73.89;102508.72;5092151;28;20761;-70
2021/03/31 08:31:45;;;;;;;9.33;7.43;;;;;;;14.92;73.58;102504.25;5090168;28;20504;-72
2021/03/31 08:34:13;;;;;;;21.70;8.63;;;;;;;15.10;76.93;102506.78;5091567;28;20457;-72
2021/03/31 08:36:39;;;;;;;13.80;9.23;;;;;;;14.92;83.25;102506.03;5091597;28;20793;-73
2021/03/31 08:39:07;;;;;;;13.37;9.40;;;;;;;14.63;87.27;102499.75;5091015;28;20398;-70
2021/03/31 08:41:37;;;;;;;11.10;9.53;;;;;;;14.64;88.60;102512.03;5091286;28;20418;-74
2021/03/31 08:44:31;;;;;;;14.00;9.60;;;;;;;14.48;85.80;102512.00;5099145;28;20898;-70
2021/03/31 08:47:07;;;;;;;17.73;12.30;;;;;;;14.37;100.00;102509.09;5096409;28;20429;-74
2021/03/31 08:49:33;;;;;;;10.90;9.37;;;;;;;14.51;97.60;102511.88;5090806;28;20405;-73
2021/03/31 08:52:02;;;;;;;19.43;12.23;;;;;;;14.63;95.81;102502.38;5091432;28;20400;-70
2021/03/31 08:54:36;;;;;;;15.90;11.13;;;;;;;14.66;100.00;102503.09;5089448;28;20187;-71
2021/03/31 08:57:23;;;;;;;14.00;10.37;;;;;;;14.67;100.00;102507.44;5086781;28;20398;-75
2021/03/31 09:00:00;;;;;;;22.93;12.50;;;;;;;14.86;100.00;102495.81;5070865;28;20970;-74
2021/03/31 09:02:28;;;;;;;19.23;11.40;;;;;;;15.03;98.57;102489.53;5085288;28;20413;-73
2021/03/31 09:04:56;;;;;;;14.00;11.00;;;;;;;15.24;94.35;102488.31;5077793;28;20406;-71
2021/03/31 09:07:23;;;;;;;14.33;11.30;;;;;;;15.34;95.43;102489.50;5086163;28;20417;-70
2021/03/31 09:09:49;;;;;;;14.60;11.30;;;;;;;15.26;98.38;102483.75;5082707;28;20421;-70
2021/03/31 09:12:17;;;;;;;14.13;10.80;;;;;;;15.31;94.09;102476.41;5076908;28;20402;-69
2021/03/31 09:14:54;;;;;;;15.90;11.40;;;;;;;15.33;96.48;102478.97;5087363;28;20552;-70
2021/03/31 09:17:25;;;;;;;12.80;10.87;;;;;;;15.54;91.50;102477.69;5091033;28;20903;-69
2021/03/31 09:20:05;;;;;;;13.37;10.17;;;;;;;15.62;88.11;102464.88;5080830;28;20483;-69
2021/03/31 09:22:32;;;;;;;15.70;10.47;;;;;;;15.55;89.05;102464.34;5090236;28;20776;-70
2021/03/31 09:24:59;;;;;;;15.83;11.33;;;;;;;15.58;93.66;102473.09;5094222;28;20402;-69
2021/03/31 09:27:28;;;;;;;16.40;11.50;;;;;;;15.78;94.38;102470.09;5104698;28;21016;-71
2021/03/31 09:29:56;;;;;;;17.73;11.40;;;;;;;15.80;93.98;102468.22;5092959;28;20503;-68
2021/03/31 09:33:01;;;;;;;14.00;10.40;;;;;;;15.75;92.74;102476.44;5090121;28;20518;-72
2021/03/31 09:35:17;;;;;;;20.23;11.33;;;;;;;15.65;99.00;102485.91;5084350;28;20414;-69
2021/03/31 09:37:51;;;;;;;19.00;11.90;;;;;;;15.63;100.00;102465.72;5089156;28;20478;-75
2021/03/31 09:40:25;;;;;;;15.60;12.13;;;;;;;15.69;100.00;102463.56;5069060;28;20501;-75
2021/03/31 09:42:55;;;;;;;16.13;12.80;;;;;;;15.61;100.00;102459.63;5083901;28;20509;-73
2021/03/31 09:45:24;;;;;;;15.10;12.90;;;;;;;15.83;100.00;102468.03;5078745;28;20433;-71
2021/03/31 09:47:50;;;;;;;16.50;12.93;;;;;;;16.31;100.00;102458.81;5080415;28;20438;-72
2021/03/31 09:50:15;;;;;;;14.23;12.50;;;;;;;17.45;100.00;102452.22;5072688;28;20493;-75
2021/03/31 09:52:41;;;;;;;17.03;14.73;;;;;;;17.80;100.00;102455.16;5091140;28;20482;-72
2021/03/31 09:55:09;;;;;;;17.20;13.50;;;;;;;18.00;100.00;102443.97;5093444;28;20163;-71
2021/03/31 09:57:40;;;;;;;18.40;14.70;;;;;;;17.80;100.00;102447.19;5085709;28;20175;-70
2021/03/31 10:00:08;;;;;;;17.23;14.00;;;;;;;18.94;100.00;102445.16;5101433;28;20412;-71
2021/03/31 10:02:35;;;;;;;16.93;14.17;;;;;;;19.08;100.00;102448.50;5095164;28;20803;-71
2021/03/31 10:05:03;;;;;;;19.17;14.20;;;;;;;19.35;99.79;102442.91;5094172;28;20402;-73
2021/03/31 10:07:28;;;;;;;16.17;14.30;;;;;;;19.63;96.62;102440.78;5093403;28;20417;-70
2021/03/31 10:09:54;;;;;;;15.77;14.03;;;;;;;19.49;98.28;102430.31;5094363;28;20762;-71
2021/03/31 10:12:28;;;;;;;20.80;13.90;;;;;;;19.84;95.49;102430.25;5094220;28;20158;-72
2021/03/31 10:14:56;;;;;;;14.87;13.03;;;;;;;20.41;87.47;102427.41;5094031;28;20910;-70
2021/03/31 10:17:24;;;;;;;18.20;13.53;;;;;;;20.92;85.92;102426.78;5093994;28;20397;-72
2021/03/31 10:19:50;;;;;;;16.77;13.60;;;;;;;21.25;82.98;102424.91;5093528;28;20831;-70
2021/03/31 10:22:17;;;;;;;11.80;10.37;;;;;;;22.03;78.57;102419.00;5094104;28;20428;-74
2021/03/31 10:24:45;;;;;;;16.00;11.33;;;;;;;21.58;76.55;102418.53;5093220;28;20755;-72
2021/03/31 10:27:12;;;;;;;13.03;11.30;;;;;;;21.43;78.81;102414.50;5094211;28;20393;-71
2021/03/31 10:29:51;;;;;;;14.10;10.73;;;;;;;22.46;73.74;102419.72;5092503;28;20441;-73
2021/03/31 10:32:20;;;;;;;12.73;11.27;;;;;;;22.90;70.99;102411.16;5093577;28;20832;-74
2021/03/31 10:34:47;;;;;;;15.40;9.20;;;;;;;23.16;69.40;102413.22;5094364;28;20545;-69
2021/03/31 10:37:27;;;;;;;10.87;9.13;;;;;;;22.65;69.22;102409.00;5095973;28;20917;-75
2021/03/31 10:51:28;;;;;;;10.70;8.90;;;;;;;22.92;64.81;102387.72;5102401;28;20435;-72
2021/03/31 10:53:57;;;;;;;12.90;9.07;;;;;;;23.17;62.96;102391.63;5095023;28;20252;-69
2021/03/31 10:56:23;;;;;;;17.87;12.70;;;;;;;23.98;61.42;102385.72;5093603;28;20398;-70
2021/03/31 10:58:49;;;;;;;10.87;8.90;;;;;;;25.31;58.51;102380.41;5087897;28;20410;-70
2021/03/31 11:01:15;;;;;;;12.03;8.13;;;;;;;25.67;56.51;102376.56;5091542;28;20405;-71
2021/03/31 11:03:40;;;;;;;10.27;8.40;;;;;;;25.53;55.68;102377.16;5093602;28;20170;-68
2021/03/31 11:06:07;;;;;;;10.30;9.07;;;;;;;25.67;54.74;102375.72;5092279;28;20617;-70
2021/03/31 11:08:32;;;;;;;10.67;9.57;;;;;;;25.45;54.74;102372.59;5093335;28;20281;-72
2021/03/31 11:10:58;;;;;;;13.90;9.10;;;;;;;25.48;55.15;102368.75;5093363;28;20883;-74
2021/03/31 11:13:23;;;;;;;13.37;9.37;;;;;;;25.14;55.95;102363.31;5093053;28;20528;-71
2021/03/31 11:15:52;;;;;;;12.43;9.27;;;;;;;24.39;56.99;102370.91;5088622;28;20180;-72
2021/03/31 11:21:05;;;;;;;11.23;9.20;;;;;;;23.84;59.12;102367.41;5095401;28;20417;-70
2021/03/31 11:26:15;;;;;;;11.60;9.60;;;;;;;24.16;58.87;102367.78;5092500;28;20824;-71
2021/03/31 11:28:42;;;;;;;11.87;8.73;;;;;;;24.07;58.95;102353.44;5092101;28;20879;-71
2021/03/31 11:31:09;;;;;;;14.30;8.90;;;;;;;23.29;61.50;102359.28;5095643;28;20519;-73
2021/03/31 11:33:35;;;;;;;16.53;8.70;;;;;;;23.20;62.54;102363.66;5113240;28;20847;-70
2021/03/31 11:36:00;;;;;;;14.80;9.63;;;;;;;23.29;61.44;102351.25;5101848;28;20410;-71
2021/03/31 11:38:28;;;;;;;10.27;9.17;;;;;;;23.13;61.89;102351.84;5092852;28;20682;-71